Sarah Dann — WDA8664 — position and weather

sailwx.info

Track history (hours):
 
Tides and Currents Weather Stations Pressure Air Temp Water Temp Dewpoint Dewpoint Depression Visibility Wind Speed Wind Dir Waves Ship Positions

Sarah Dann

Owner: SARAH DANN INC., TAMPA, FL. More information available from US FCC via Universal Licensing System and Coast Guard Vessel Documentation Center.

Last reported at 2017-Oct-17 12:16 UTC. Time now 2017-Oct-17 20:28 UTC.
Position N 38°49' W 075°02'.

Length 30 m; draft 4.6 m.

Type: Tug. MMSI: 303029000.

Date/timePositionNaut miles runAvg speedWind from/ knotsBaromVisibWave heightAir tempDewpointWater temp
2017-Oct-17 12:16N 38°49' W 075°02'1 5.2
2017-Oct-17 11:59N 38°50' W 075°02'2 5.2
2017-Oct-17 11:30N 38°52' W 075°04'2 4.5
2017-Oct-17 11:00N 38°54' W 075°05'2 3.9
2017-Oct-17 10:30N 38°56' W 075°06'2 4.1
2017-Oct-17 10:00N 38°58' W 075°07'2 4.2
2017-Oct-17 09:30N 38°60' W 075°08'2 4.3
2017-Oct-17 09:01N 39°02' W 075°09'2 4.4
2017-Oct-17 08:31N 39°04' W 075°10'2 4.8
2017-Oct-17 08:00N 39°06' W 075°12'3 5.6
2017-Oct-17 07:30N 39°08' W 075°14'3 6.2
2017-Oct-17 07:00N 39°11' W 075°16'4 7.1
2017-Oct-17 06:31N 39°14' W 075°18'4 7.5
2017-Oct-17 06:01N 39°17' W 075°21'4 7.7
2017-Oct-17 05:30N 39°19' W 075°25'4 7.6
2017-Oct-17 05:01N 39°22' W 075°28'4 7.1
2017-Oct-17 04:31N 39°25' W 075°31'3 6.5
2017-Oct-17 04:01N 39°27' W 075°34'3 5.9
2017-Oct-17 03:30N 39°30' W 075°33'2 3.0
2017-Oct-17 03:01N 39°32' W 075°33'1 2.8
2017-Oct-17 02:31N 39°33' W 075°32'2 4.0
2017-Oct-17 02:00N 39°34' W 075°30'1 1.6
2017-Oct-17 01:31N 39°35' W 075°29'0 0.1
2017-Oct-17 01:00N 39°35' W 075°29'0 0.0
2017-Oct-17 00:30N 39°35' W 075°29'0 0.0
2017-Oct-17 00:00N 39°35' W 075°29'0 0.0
2017-Oct-16 23:30N 39°35' W 075°29'0 0.0
2017-Oct-16 23:00N 39°35' W 075°29'0 0.0
2017-Oct-16 22:30N 39°35' W 075°29'0 0.0
2017-Oct-16 22:00N 39°35' W 075°29'0 0.0
2017-Oct-16 21:30N 39°35' W 075°29'0 0.0
2017-Oct-16 21:00N 39°35' W 075°29'0 0.0
2017-Oct-16 20:30N 39°35' W 075°29'0 0.0
2017-Oct-16 20:00N 39°35' W 075°29'0 0.0
2017-Oct-16 19:30N 39°35' W 075°29'0 0.0
2017-Oct-16 19:00N 39°35' W 075°29'0 0.0
2017-Oct-16 18:30N 39°35' W 075°29'0 0.0
2017-Oct-16 18:00N 39°35' W 075°29'0 0.0
2017-Oct-16 17:30N 39°35' W 075°29'0 0.0
2017-Oct-16 17:00N 39°35' W 075°29'0 0.0
2017-Oct-16 16:30N 39°35' W 075°29'0 0.0
2017-Oct-16 16:00N 39°35' W 075°29'0 0.0
2017-Oct-16 15:30N 39°35' W 075°29'0 0.0
2017-Oct-16 15:00N 39°35' W 075°29'0 0.0
2017-Oct-16 14:00N 39°35' W 075°29'0 0.0
2017-Oct-16 13:30N 39°35' W 075°29'0 0.0
2017-Oct-16 13:00N 39°35' W 075°29'0 0.0
2017-Oct-16 12:30N 39°35' W 075°29'0 0.0
2017-Oct-16 12:00N 39°35' W 075°29'0 0.0
2017-Oct-16 11:30N 39°35' W 075°29'0 0.0
2017-Oct-16 11:00N 39°35' W 075°29'0 0.0
2017-Oct-16 10:30N 39°35' W 075°29'0 0.0
2017-Oct-16 10:00N 39°35' W 075°29'0 0.0
2017-Oct-16 09:30N 39°35' W 075°29'0 0.0
2017-Oct-16 09:00N 39°35' W 075°29'0 0.0
2017-Oct-16 08:30N 39°35' W 075°29'0 0.0
2017-Oct-16 08:00N 39°35' W 075°29'0 0.0
2017-Oct-16 07:30N 39°35' W 075°29'0 0.0
2017-Oct-16 07:00N 39°35' W 075°29'0 0.0
2017-Oct-16 06:30N 39°35' W 075°29'0 0.0
2017-Oct-16 06:00N 39°35' W 075°29'0 0.0
2017-Oct-16 05:30N 39°35' W 075°29'0 0.0
2017-Oct-16 05:00N 39°35' W 075°29'0 0.0
2017-Oct-16 04:30N 39°35' W 075°29'0 0.0
2017-Oct-16 04:00N 39°35' W 075°29'0 0.0
2017-Oct-16 03:30N 39°35' W 075°29'0 0.0
2017-Oct-16 03:00N 39°35' W 075°29'0 0.0
2017-Oct-16 02:30N 39°35' W 075°29'0 0.0
2017-Oct-16 02:00N 39°35' W 075°29'0 0.0
2017-Oct-16 01:30N 39°35' W 075°29'0 0.0
2017-Oct-16 01:00N 39°35' W 075°29'0 0.0
2017-Oct-16 00:30N 39°35' W 075°29'0 0.0
2017-Oct-16 00:00N 39°35' W 075°29'0 0.0
2017-Oct-15 23:30N 39°35' W 075°29'0 0.0
2017-Oct-15 23:00N 39°35' W 075°29'0 0.0
2017-Oct-15 22:30N 39°35' W 075°29'0 0.0
2017-Oct-15 22:00N 39°35' W 075°29'0 0.0
2017-Oct-15 21:30N 39°35' W 075°29'0 0.0
2017-Oct-15 21:00N 39°35' W 075°29'0 0.0
2017-Oct-15 20:30N 39°35' W 075°29'0 0.0
2017-Oct-15 20:00N 39°35' W 075°29'0 0.0
2017-Oct-15 19:30N 39°35' W 075°29'0 0.0
2017-Oct-15 19:00N 39°35' W 075°29'0 0.0
2017-Oct-15 18:30N 39°35' W 075°29'0 0.0
2017-Oct-15 18:00N 39°35' W 075°29'0 0.0
2017-Oct-15 17:30N 39°35' W 075°29'0 0.0
2017-Oct-15 17:00N 39°35' W 075°29'0 0.0
2017-Oct-15 16:30N 39°35' W 075°29'0 0.0
2017-Oct-15 16:00N 39°35' W 075°29'0 0.0
2017-Oct-15 15:30N 39°35' W 075°29'0 0.0
2017-Oct-15 15:00N 39°35' W 075°29'1 1.1
2017-Oct-15 14:01N 39°34' W 075°30'3 6.1
2017-Oct-15 13:31N 39°32' W 075°33'0 0.5
2017-Oct-15 13:01N 39°32' W 075°33'0 0.4
2017-Oct-15 12:31N 39°32' W 075°33'2 4.3
2017-Oct-15 12:01N 39°30' W 075°34'3 5.8
2017-Oct-15 11:30N 39°27' W 075°33'3 6.3
2017-Oct-15 11:00N 39°25' W 075°31'3 5.2
2017-Oct-15 10:31N 39°23' W 075°28'3 5.6
2017-Oct-15 10:00N 39°21' W 075°26'3 6.0
2017-Oct-15 09:31N 39°19' W 075°23'3 5.8
2017-Oct-15 09:00N 39°16' W 075°21'3 5.2
2017-Oct-15 08:30N 39°14' W 075°19'3 5.1
2017-Oct-15 08:00N 39°12' W 075°17'3 5.2
2017-Oct-15 07:30N 39°10' W 075°15'3 5.1
2017-Oct-15 07:00N 39°08' W 075°14'2 4.9
2017-Oct-15 06:30N 39°06' W 075°12'3 5.0
2017-Oct-15 06:00N 39°04' W 075°10'3 5.3
2017-Oct-15 05:30N 39°01' W 075°09'3 5.5
2017-Oct-15 05:01N 38°59' W 075°08'3 5.2
2017-Oct-15 04:30N 38°56' W 075°06'2 4.9
2017-Oct-15 04:00N 38°54' W 075°05'2 4.6
2017-Oct-15 03:30N 38°52' W 075°04'3 6.2
2017-Oct-15 03:00N 38°49' W 075°02'5 6.9
2017-Oct-15 02:21N 38°49' W 074°56'3 7.6
2017-Oct-15 02:01N 38°49' W 074°53'4 7.7
2017-Oct-15 01:27N 38°52' W 074°48'4 8.0
2017-Oct-15 01:00N 38°55' W 074°46'4 8.0
2017-Oct-15 00:28N 38°58' W 074°43'4 7.9
2017-Oct-15 00:00N 39°01' W 074°40'4 7.9
2017-Oct-14 23:31N 39°04' W 074°37'4 8.3
2017-Oct-14 23:00N 39°07' W 074°33'5 9.0
2017-Oct-14 22:30N 39°11' W 074°29'5 8.9
2017-Oct-14 21:59N 39°14' W 074°25'5 9.1
2017-Oct-14 21:29N 39°17' W 074°21'4 9.1
2017-Oct-14 21:00N 39°21' W 074°18'4 9.1
2017-Oct-14 20:31N 39°25' W 074°15'5 9.2
2017-Oct-14 20:00N 39°29' W 074°12'4 9.1
2017-Oct-14 19:30N 39°33' W 074°09'5 9.1
2017-Oct-14 19:00N 39°37' W 074°06'4 9.1
2017-Oct-14 18:30N 39°41' W 074°03'5 9.2
2017-Oct-14 18:00N 39°44' W 073°59'4 8.7
2017-Oct-14 17:29N 39°49' W 073°58'4 8.7
2017-Oct-14 17:00N 39°53' W 073°57'4 8.7
2017-Oct-14 16:30N 39°57' W 073°57'4 8.8
2017-Oct-14 16:00N 40°02' W 073°56'5 8.9
2017-Oct-14 15:25N 40°07' W 073°55'6 8.7
2017-Oct-14 14:40N 40°13' W 073°55'4 8.7
2017-Oct-14 14:13N 40°17' W 073°54'2 8.6
2017-Oct-14 14:00N 40°19' W 073°54'5 9.2
2017-Oct-14 13:30N 40°24' W 073°54'5 9.1
2017-Oct-14 12:59N 40°28' W 073°54'4 8.1
2017-Oct-14 12:30N 40°30' W 073°58'5 9.4
2017-Oct-14 12:00N 40°34' W 074°02'5 9.4
2017-Oct-14 11:30N 40°39' W 074°02'2 3.9
2017-Oct-14 11:00N 40°40' W 074°00'0 0.0
2017-Oct-14 10:29N 40°40' W 074°00'0 0.0
2017-Oct-14 09:59N 40°40' W 074°00'0 0.0
2017-Oct-14 09:26N 40°40' W 074°00'0 0.0
2017-Oct-14 08:59N 40°40' W 074°00'0 0.0
2017-Oct-14 08:29N 40°40' W 074°00'0 0.0
2017-Oct-14 07:59N 40°40' W 074°00'0 0.0
2017-Oct-14 07:29N 40°40' W 074°00'0 0.0
2017-Oct-14 06:59N 40°40' W 074°00'0 0.0
2017-Oct-14 06:29N 40°40' W 074°00'0 0.0
2017-Oct-14 05:59N 40°40' W 074°00'0 0.0
2017-Oct-14 05:29N 40°40' W 074°00'0 0.0
2017-Oct-14 05:00N 40°40' W 074°00'0 0.0
2017-Oct-14 04:29N 40°40' W 074°00'0 0.0
2017-Oct-14 03:59N 40°40' W 074°00'0 0.0
2017-Oct-14 03:29N 40°40' W 074°00'0 0.0
2017-Oct-14 02:56N 40°40' W 074°00'0 0.0
2017-Oct-14 02:29N 40°40' W 074°00'0 0.0
2017-Oct-14 01:56N 40°40' W 074°00'0 0.0
2017-Oct-14 01:29N 40°40' W 074°00'0 0.0
2017-Oct-14 00:59N 40°40' W 074°00'0 0.0
2017-Oct-14 00:26N 40°40' W 074°00'0 0.0
2017-Oct-13 23:59N 40°40' W 074°00'0 0.0
2017-Oct-13 23:26N 40°40' W 074°00'0 0.0
2017-Oct-13 22:56N 40°40' W 074°00'0 0.3
2017-Oct-13 22:28N 40°40' W 074°00'0 0.0
2017-Oct-13 21:55N 40°40' W 074°00'0 0.0
2017-Oct-13 21:28N 40°40' W 074°00'0 0.0
2017-Oct-13 20:58N 40°40' W 074°00'0 0.0
2017-Oct-13 20:28N 40°40' W 074°00'0 0.0
2017-Oct-13 19:58N 40°40' W 074°00'0 0.0
2017-Oct-13 19:25N 40°40' W 074°00'0 0.0
2017-Oct-13 18:52N 40°40' W 074°00'0 0.0
2017-Oct-13 18:28N 40°40' W 074°00'0 0.1
2017-Oct-13 17:58N 40°40' W 074°00'0 0.0
2017-Oct-13 17:25N 40°40' W 074°00'0 0.0
2017-Oct-13 16:58N 40°40' W 074°00'0 0.0
2017-Oct-13 16:28N 40°40' W 074°00'0 0.0
2017-Oct-13 15:58N 40°40' W 074°00'0 0.0
2017-Oct-13 15:28N 40°40' W 074°00'0 0.0
2017-Oct-13 14:58N 40°40' W 074°00'0 0.0
2017-Oct-13 14:28N 40°40' W 074°00'0 0.0
2017-Oct-13 13:55N 40°40' W 074°00'0 0.0
2017-Oct-13 13:28N 40°40' W 074°00'0 0.0
2017-Oct-13 12:58N 40°40' W 074°00'0 0.0
2017-Oct-13 12:19N 40°40' W 074°00'0 0.0
2017-Oct-13 11:58N 40°40' W 074°00'0 0.0
2017-Oct-13 11:28N 40°40' W 074°00'0 0.0
2017-Oct-13 10:58N 40°40' W 074°00'0 0.2
2017-Oct-13 10:26N 40°40' W 074°00'0 0.2
2017-Oct-13 09:59N 40°40' W 074°00'0 0.0
2017-Oct-13 09:29N 40°40' W 074°00'0 0.0
2017-Oct-13 08:59N 40°40' W 074°00'0 0.0
2017-Oct-13 08:29N 40°40' W 074°00'0 0.0
2017-Oct-13 07:59N 40°40' W 074°00'0 0.0
2017-Oct-13 07:30N 40°40' W 074°00'0 0.0
2017-Oct-13 06:59N 40°40' W 074°00'0 0.0
2017-Oct-13 06:29N 40°40' W 074°00'0 0.0
2017-Oct-13 06:00N 40°40' W 074°00'0 0.0
2017-Oct-13 05:29N 40°40' W 074°00'0 0.0
2017-Oct-13 04:59N 40°40' W 074°00'0 0.0
2017-Oct-13 04:30N 40°40' W 074°00'0 0.0
2017-Oct-13 03:59N 40°40' W 074°00'0 0.0
2017-Oct-13 03:29N 40°40' W 074°00'0 0.0
2017-Oct-13 02:59N 40°40' W 074°00'0 0.0
2017-Oct-13 02:29N 40°40' W 074°00'0 0.0
2017-Oct-13 01:59N 40°40' W 074°00'0 0.0
2017-Oct-13 01:27N 40°40' W 074°00'0 0.0
2017-Oct-13 00:56N 40°40' W 074°00'0 0.0
2017-Oct-13 00:29N 40°40' W 074°00'0 0.0
2017-Oct-12 23:56N 40°40' W 074°00'0 0.0
2017-Oct-12 23:29N 40°40' W 074°00'0 0.0
2017-Oct-12 23:00N 40°40' W 074°00'0 0.0
2017-Oct-12 22:29N 40°40' W 074°00'0 0.0
2017-Oct-12 21:59N 40°40' W 074°00'0 0.0
2017-Oct-12 21:29N 40°40' W 074°00'0 0.0
2017-Oct-12 20:59N 40°40' W 074°00'0 0.0
2017-Oct-12 20:29N 40°40' W 074°00'0 0.0
2017-Oct-12 19:56N 40°40' W 074°00'0 0.0
2017-Oct-12 19:26N 40°40' W 074°00'0 0.0
2017-Oct-12 18:59N 40°40' W 074°00'0 0.0
2017-Oct-12 18:29N 40°40' W 074°00'0 0.0
2017-Oct-12 17:59N 40°40' W 074°00'0 0.0
2017-Oct-12 17:29N 40°40' W 074°00'0 0.0
2017-Oct-12 16:59N 40°40' W 074°00'0 0.0
2017-Oct-12 16:29N 40°40' W 074°00'0 0.0
2017-Oct-12 15:59N 40°40' W 074°00'0 0.0
2017-Oct-12 15:29N 40°40' W 074°00'0 0.0
2017-Oct-12 14:50N 40°40' W 074°00'0 0.0
2017-Oct-12 14:26N 40°40' W 074°00'0 0.2
2017-Oct-12 14:00N 40°40' W 074°00'0 0.2
2017-Oct-12 13:28N 40°40' W 074°00'0 0.0
2017-Oct-12 12:58N 40°40' W 074°00'0 0.0
2017-Oct-12 12:28N 40°40' W 074°00'0 0.0
2017-Oct-12 11:49N 40°40' W 074°00'0 0.0
2017-Oct-12 11:28N 40°40' W 074°00'0 0.0
2017-Oct-12 10:58N 40°40' W 074°00'0 0.0
2017-Oct-12 10:28N 40°40' W 074°00'0 0.0
2017-Oct-12 09:58N 40°40' W 074°00'0 0.0
2017-Oct-12 09:31N 40°40' W 074°00'0 0.0
2017-Oct-12 08:55N 40°40' W 074°00'0 0.0
2017-Oct-12 08:28N 40°40' W 074°00'0 0.0
2017-Oct-12 07:58N 40°40' W 074°00'0 0.0
2017-Oct-12 07:31N 40°40' W 074°00'0 0.0
2017-Oct-12 07:01N 40°40' W 074°00'0 0.0
2017-Oct-12 06:28N 40°40' W 074°00'0 0.0
2017-Oct-12 06:01N 40°40' W 074°00'0 0.0
2017-Oct-12 05:28N 40°40' W 074°00'0 0.0
2017-Oct-12 04:55N 40°40' W 074°00'0 0.0
2017-Oct-12 04:31N 40°40' W 074°00'0 0.0
2017-Oct-12 03:58N 40°40' W 074°00'0 0.0
2017-Oct-12 03:28N 40°40' W 074°00'0 0.0
2017-Oct-12 03:01N 40°40' W 074°00'0 0.0
2017-Oct-12 02:28N 40°40' W 074°00'0 0.0
2017-Oct-12 01:57N 40°40' W 074°00'0 0.0
2017-Oct-12 01:28N 40°40' W 074°00'0 0.0
2017-Oct-12 00:57N 40°40' W 074°00'0 0.0
2017-Oct-12 00:30N 40°40' W 074°00'0 0.0
2017-Oct-11 23:58N 40°40' W 074°00'0 0.0
2017-Oct-11 23:30N 40°40' W 074°00'0 0.0
2017-Oct-11 23:01N 40°40' W 074°00'0 0.0
2017-Oct-11 22:30N 40°40' W 074°00'0 0.0
2017-Oct-11 22:00N 40°40' W 074°00'0 0.0
2017-Oct-11 21:30N 40°40' W 074°00'0 0.0
2017-Oct-11 20:58N 40°40' W 074°00'0 0.0
2017-Oct-11 20:27N 40°40' W 074°00'0 0.0
2017-Oct-11 20:01N 40°40' W 074°00'0 0.0
2017-Oct-11 19:31N 40°40' W 074°00'0 0.0
2017-Oct-11 18:58N 40°40' W 074°00'0 0.0
2017-Oct-11 18:30N 40°40' W 074°00'0 0.0
2017-Oct-11 18:00N 40°40' W 074°00'0 0.0
2017-Oct-11 17:28N 40°40' W 074°00'0 0.0
2017-Oct-11 17:01N 40°40' W 074°00'0 0.0
2017-Oct-10 23:59N 40°40' W 074°00'0 0.0
2017-Oct-10 23:29N 40°40' W 074°00'0 0.0
2017-Oct-10 22:59N 40°40' W 074°00'0 0.0
2017-Oct-10 22:29N 40°40' W 074°00'0 0.0
2017-Oct-10 21:59N 40°40' W 074°00'0 0.0
2017-Oct-10 21:29N 40°40' W 074°00'0 0.0
2017-Oct-10 20:59N 40°40' W 074°00'0 0.0
2017-Oct-10 20:29N 40°40' W 074°00'0 0.0
2017-Oct-10 19:59N 40°40' W 074°00'0 0.0
2017-Oct-10 19:29N 40°40' W 074°00'0 0.0
2017-Oct-10 18:59N 40°40' W 074°00'0 0.0
2017-Oct-10 18:29N 40°40' W 074°00'0 0.0
2017-Oct-10 17:59N 40°40' W 074°00'0 0.0
2017-Oct-10 17:29N 40°40' W 074°00'0 0.0
2017-Oct-10 16:59N 40°40' W 074°00'0 0.0
2017-Oct-10 16:29N 40°40' W 074°00'0 0.0
2017-Oct-10 15:59N 40°40' W 074°00'0 0.0
2017-Oct-10 15:29N 40°40' W 074°00'0 0.0
2017-Oct-10 14:59N 40°40' W 074°00'0 0.0
2017-Oct-10 13:59N 40°40' W 074°00'0 0.0
2017-Oct-10 13:29N 40°40' W 074°00'0 0.0
2017-Oct-10 12:59N 40°40' W 074°00'0 0.0
2017-Oct-10 12:29N 40°40' W 074°00'0 0.0
2017-Oct-10 11:59N 40°40' W 074°00'0 0.0
2017-Oct-10 11:29N 40°40' W 074°00'0 0.0
2017-Oct-10 10:59N 40°40' W 074°00'0 0.0
2017-Oct-10 10:29N 40°40' W 074°00'0 0.0
2017-Oct-10 09:59N 40°40' W 074°00'0 0.0
2017-Oct-10 09:29N 40°40' W 074°00'0 0.0
2017-Oct-10 08:59N 40°40' W 074°00'0 0.0
2017-Oct-10 08:29N 40°40' W 074°00'0 0.0
2017-Oct-10 07:59N 40°40' W 074°00'0 0.0
2017-Oct-10 07:29N 40°40' W 074°00'0 0.0
2017-Oct-10 06:59N 40°40' W 074°00'0 0.0
2017-Oct-10 06:29N 40°40' W 074°00'0 0.0
2017-Oct-10 05:59N 40°40' W 074°00'0 0.0
2017-Oct-10 05:29N 40°40' W 074°00'0 0.0
2017-Oct-10 04:59N 40°40' W 074°00'0 0.0
2017-Oct-10 04:29N 40°40' W 074°00'0 0.0
2017-Oct-10 03:59N 40°40' W 074°00'0 0.0
2017-Oct-10 03:29N 40°40' W 074°00'0 0.0
2017-Oct-10 02:59N 40°40' W 074°00'0 0.0
2017-Oct-10 02:29N 40°40' W 074°00'0 0.0
2017-Oct-10 01:59N 40°40' W 074°00'0 0.0
2017-Oct-10 01:29N 40°40' W 074°00'0 0.0
2017-Oct-10 00:59N 40°40' W 074°00'0 0.0
2017-Oct-10 00:29N 40°40' W 074°00'0 0.0
2017-Oct-09 23:59N 40°40' W 074°00'0 0.0
2017-Oct-09 23:29N 40°40' W 074°00'0 0.0
2017-Oct-09 22:59N 40°40' W 074°00'0 0.0
2017-Oct-09 22:29N 40°40' W 074°00'0 0.0
2017-Oct-09 21:59N 40°40' W 074°00'0 0.0
2017-Oct-09 21:29N 40°40' W 074°00'0 0.0
2017-Oct-09 20:59N 40°40' W 074°00'0 0.0
2017-Oct-09 20:29N 40°40' W 074°00'0 0.0
2017-Oct-09 19:59N 40°40' W 074°00'0 0.0
2017-Oct-09 19:29N 40°40' W 074°00'0 0.0
2017-Oct-09 18:59N 40°40' W 074°00'0 0.0
2017-Oct-09 18:29N 40°40' W 074°00'0 0.0
2017-Oct-09 17:59N 40°40' W 074°00'0 0.0
2017-Oct-09 17:29N 40°40' W 074°00'0 0.0
2017-Oct-09 16:59N 40°40' W 074°00'0 0.0
2017-Oct-09 16:28N 40°40' W 074°00'0 0.0
2017-Oct-09 15:59N 40°40' W 074°00'0 0.0
2017-Oct-09 15:29N 40°40' W 074°00'0 0.0
2017-Oct-09 14:59N 40°40' W 074°00'0 0.0
2017-Oct-09 14:29N 40°40' W 074°00'0 0.0
2017-Oct-09 13:58N 40°40' W 074°00'0 0.0
2017-Oct-09 13:28N 40°40' W 074°00'0 0.0
2017-Oct-09 12:59N 40°40' W 074°00'0 0.0
2017-Oct-09 12:28N 40°40' W 074°00'0 0.0
2017-Oct-09 11:58N 40°40' W 074°00'0 0.0
2017-Oct-09 11:28N 40°40' W 074°00'0 0.1
2017-Oct-09 10:58N 40°40' W 074°00'0 0.1
2017-Oct-09 10:29N 40°40' W 074°00'0 0.0
2017-Oct-09 09:58N 40°40' W 074°00'0 0.0
2017-Oct-09 09:29N 40°40' W 074°00'0 0.0
2017-Oct-09 08:58N 40°40' W 074°00'0 0.0
2017-Oct-09 08:29N 40°40' W 074°00'0 0.0
2017-Oct-09 07:58N 40°40' W 074°00'0 0.0
2017-Oct-09 07:29N 40°40' W 074°00'0 0.0
2017-Oct-09 06:58N 40°40' W 074°00'0 0.0
2017-Oct-09 06:29N 40°40' W 074°00'0 0.0
2017-Oct-09 05:59N 40°40' W 074°00'0 0.0
2017-Oct-09 05:29N 40°40' W 074°00'0 0.0
2017-Oct-09 04:59N 40°40' W 074°00'0 0.0
2017-Oct-09 04:28N 40°40' W 074°00'0 0.0
2017-Oct-09 03:59N 40°40' W 074°00'0 0.0
2017-Oct-09 03:29N 40°40' W 074°00'0 0.1
2017-Oct-09 02:59N 40°40' W 074°00'0 0.0
2017-Oct-09 02:28N 40°40' W 074°00'0 0.0
2017-Oct-09 01:58N 40°40' W 074°00'0 0.0
2017-Oct-09 01:28N 40°40' W 074°00'0 0.0
2017-Oct-09 00:58N 40°40' W 074°00'0 0.0
2017-Oct-09 00:28N 40°40' W 074°00'0 0.0
2017-Oct-08 23:59N 40°40' W 074°00'0 0.0
2017-Oct-08 23:28N 40°40' W 074°00'0 0.0
2017-Oct-08 22:58N 40°40' W 074°00'0 0.0
2017-Oct-08 22:28N 40°40' W 074°00'0 0.0
2017-Oct-08 21:58N 40°40' W 074°00'0 0.0
2017-Oct-08 21:28N 40°40' W 074°00'0 0.0
2017-Oct-08 20:58N 40°40' W 074°00'0 0.0
2017-Oct-08 20:28N 40°40' W 074°00'0 0.0
2017-Oct-08 19:58N 40°40' W 074°00'0 0.0
2017-Oct-08 19:28N 40°40' W 074°00'0 0.0
2017-Oct-08 18:58N 40°40' W 074°00'0 0.0
2017-Oct-08 18:28N 40°40' W 074°00'0 0.0
2017-Oct-08 17:58N 40°40' W 074°00'0 0.0
2017-Oct-08 17:25N 40°40' W 074°00'0 0.0
2017-Oct-08 16:58N 40°40' W 074°00'0 0.0
2017-Oct-08 16:28N 40°40' W 074°00'0 0.0
2017-Oct-08 15:58N 40°40' W 074°00'0 0.0
2017-Oct-08 15:28N 40°40' W 074°00'0 0.0
2017-Oct-08 14:58N 40°40' W 074°00'0 0.0
2017-Oct-08 14:25N 40°40' W 074°00'0 0.0
2017-Oct-08 13:58N 40°40' W 074°00'0 0.0
2017-Oct-08 13:28N 40°40' W 074°00'0 0.0
2017-Oct-08 12:58N 40°40' W 074°00'0 0.0
2017-Oct-08 12:28N 40°40' W 074°00'0 0.0
2017-Oct-08 11:58N 40°40' W 074°00'0 0.0
2017-Oct-08 11:28N 40°40' W 074°00'0 0.0
2017-Oct-08 10:58N 40°40' W 074°00'0 0.0
2017-Oct-08 10:28N 40°40' W 074°00'0 0.0
2017-Oct-08 09:58N 40°40' W 074°00'0 0.0
2017-Oct-08 09:28N 40°40' W 074°00'0 0.0
2017-Oct-08 08:58N 40°40' W 074°00'0 0.0
2017-Oct-08 08:28N 40°40' W 074°00'0 0.0
2017-Oct-08 07:58N 40°40' W 074°00'0 0.0
2017-Oct-08 07:28N 40°40' W 074°00'0 0.0
2017-Oct-08 06:58N 40°40' W 074°00'0 0.0
2017-Oct-08 06:28N 40°40' W 074°00'0 0.0
2017-Oct-08 05:58N 40°40' W 074°00'0 0.0
2017-Oct-08 05:28N 40°40' W 074°00'0 0.0
2017-Oct-08 04:58N 40°40' W 074°00'0 0.0
2017-Oct-08 04:28N 40°40' W 074°00'0 0.0
2017-Oct-08 03:58N 40°40' W 074°00'0 0.0
2017-Oct-08 03:28N 40°40' W 074°00'0 0.0
2017-Oct-08 02:58N 40°40' W 074°00'0 0.0
2017-Oct-08 02:28N 40°40' W 074°00'0 0.0
2017-Oct-08 01:58N 40°40' W 074°00'0 0.0
2017-Oct-08 01:28N 40°40' W 074°00'0 0.0
2017-Oct-08 00:58N 40°40' W 074°00'0 0.0
2017-Oct-08 00:28N 40°40' W 074°00'0 0.0
2017-Oct-07 23:58N 40°40' W 074°00'0 0.1
2017-Oct-07 23:30N 40°40' W 074°00'0 0.1
2017-Oct-07 23:00N 40°40' W 074°00'3 5.0
2017-Oct-07 22:30N 40°38' W 074°03'1 1.9
2017-Oct-07 22:00N 40°37' W 074°03'2 4.6
2017-Oct-07 21:30N 40°35' W 074°02'2 5.0
2017-Oct-07 21:00N 40°33' W 074°01'2 4.9
2017-Oct-07 20:30N 40°31' W 073°59'2 4.4
2017-Oct-07 20:00N 40°30' W 073°57'2 3.6
2017-Oct-07 19:30N 40°29' W 073°55'2 3.6
2017-Oct-07 19:00N 40°27' W 073°54'3 6.6
2017-Oct-07 18:29N 40°24' W 073°54'3 6.7
2017-Oct-07 18:00N 40°21' W 073°54'3 6.9
2017-Oct-07 17:30N 40°17' W 073°54'3 6.8
2017-Oct-07 17:00N 40°14' W 073°54'4 6.8
2017-Oct-07 16:27N 40°10' W 073°55'5 6.8
2017-Oct-07 15:41N 40°05' W 073°55'2 6.8
2017-Oct-07 15:23N 40°03' W 073°56'3 7.1
2017-Oct-07 15:00N 40°00' W 073°56'4 7.3
2017-Oct-07 14:29N 39°56' W 073°57'4 7.3
2017-Oct-07 13:58N 39°53' W 073°57'4 7.4
2017-Oct-07 13:29N 39°49' W 073°58'4 7.6
2017-Oct-07 13:00N 39°45' W 073°59'4 7.6
2017-Oct-07 12:29N 39°42' W 074°01'  
Track history (hours):
 
Tides and Currents Weather Stations Pressure Air Temp Water Temp Dewpoint Dewpoint Depression Visibility Wind Speed Wind Dir Waves Ship Positions

Sarah Dann

Owner: SARAH DANN INC., TAMPA, FL. More information available from US FCC via Universal Licensing System and Coast Guard Vessel Documentation Center.

Last reported at 2017-Oct-17 12:16 UTC. Time now 2017-Oct-17 20:28 UTC.
Position N 38°49' W 075°02'.

Length 30 m; draft 4.6 m.

Type: Tug. MMSI: 303029000.

Date/timePositionNaut miles runAvg speedWind from/ knotsBaromVisibWave heightAir tempDewpointWater temp
2017-Oct-17 12:16N 38°49' W 075°02'1 5.2
2017-Oct-17 11:59N 38°50' W 075°02'2 5.2
2017-Oct-17 11:30N 38°52' W 075°04'2 4.5
2017-Oct-17 11:00N 38°54' W 075°05'2 3.9
2017-Oct-17 10:30N 38°56' W 075°06'2 4.1
2017-Oct-17 10:00N 38°58' W 075°07'2 4.2
2017-Oct-17 09:30N 38°60' W 075°08'2 4.3
2017-Oct-17 09:01N 39°02' W 075°09'2 4.4
2017-Oct-17 08:31N 39°04' W 075°10'2 4.8
2017-Oct-17 08:00N 39°06' W 075°12'3 5.6
2017-Oct-17 07:30N 39°08' W 075°14'3 6.2
2017-Oct-17 07:00N 39°11' W 075°16'4 7.1
2017-Oct-17 06:31N 39°14' W 075°18'4 7.5
2017-Oct-17 06:01N 39°17' W 075°21'4 7.7
2017-Oct-17 05:30N 39°19' W 075°25'4 7.6
2017-Oct-17 05:01N 39°22' W 075°28'4 7.1
2017-Oct-17 04:31N 39°25' W 075°31'3 6.5
2017-Oct-17 04:01N 39°27' W 075°34'3 5.9
2017-Oct-17 03:30N 39°30' W 075°33'2 3.0
2017-Oct-17 03:01N 39°32' W 075°33'1 2.8
2017-Oct-17 02:31N 39°33' W 075°32'2 4.0
2017-Oct-17 02:00N 39°34' W 075°30'1 1.6
2017-Oct-17 01:31N 39°35' W 075°29'0 0.1
2017-Oct-17 01:00N 39°35' W 075°29'0 0.0
2017-Oct-17 00:30N 39°35' W 075°29'0 0.0
2017-Oct-17 00:00N 39°35' W 075°29'0 0.0
2017-Oct-16 23:30N 39°35' W 075°29'0 0.0
2017-Oct-16 23:00N 39°35' W 075°29'0 0.0
2017-Oct-16 22:30N 39°35' W 075°29'0 0.0
2017-Oct-16 22:00N 39°35' W 075°29'0 0.0
2017-Oct-16 21:30N 39°35' W 075°29'0 0.0
2017-Oct-16 21:00N 39°35' W 075°29'0 0.0
2017-Oct-16 20:30N 39°35' W 075°29'0 0.0
2017-Oct-16 20:00N 39°35' W 075°29'0 0.0
2017-Oct-16 19:30N 39°35' W 075°29'0 0.0
2017-Oct-16 19:00N 39°35' W 075°29'0 0.0
2017-Oct-16 18:30N 39°35' W 075°29'0 0.0
2017-Oct-16 18:00N 39°35' W 075°29'0 0.0
2017-Oct-16 17:30N 39°35' W 075°29'0 0.0
2017-Oct-16 17:00N 39°35' W 075°29'0 0.0
2017-Oct-16 16:30N 39°35' W 075°29'0 0.0
2017-Oct-16 16:00N 39°35' W 075°29'0 0.0
2017-Oct-16 15:30N 39°35' W 075°29'0 0.0
2017-Oct-16 15:00N 39°35' W 075°29'0 0.0
2017-Oct-16 14:00N 39°35' W 075°29'0 0.0
2017-Oct-16 13:30N 39°35' W 075°29'0 0.0
2017-Oct-16 13:00N 39°35' W 075°29'0 0.0
2017-Oct-16 12:30N 39°35' W 075°29'0 0.0
2017-Oct-16 12:00N 39°35' W 075°29'0 0.0
2017-Oct-16 11:30N 39°35' W 075°29'0 0.0
2017-Oct-16 11:00N 39°35' W 075°29'0 0.0
2017-Oct-16 10:30N 39°35' W 075°29'0 0.0
2017-Oct-16 10:00N 39°35' W 075°29'0 0.0
2017-Oct-16 09:30N 39°35' W 075°29'0 0.0
2017-Oct-16 09:00N 39°35' W 075°29'0 0.0
2017-Oct-16 08:30N 39°35' W 075°29'0 0.0
2017-Oct-16 08:00N 39°35' W 075°29'0 0.0
2017-Oct-16 07:30N 39°35' W 075°29'0 0.0
2017-Oct-16 07:00N 39°35' W 075°29'0 0.0
2017-Oct-16 06:30N 39°35' W 075°29'0 0.0
2017-Oct-16 06:00N 39°35' W 075°29'0 0.0
2017-Oct-16 05:30N 39°35' W 075°29'0 0.0
2017-Oct-16 05:00N 39°35' W 075°29'0 0.0
2017-Oct-16 04:30N 39°35' W 075°29'0 0.0
2017-Oct-16 04:00N 39°35' W 075°29'0 0.0
2017-Oct-16 03:30N 39°35' W 075°29'0 0.0
2017-Oct-16 03:00N 39°35' W 075°29'0 0.0
2017-Oct-16 02:30N 39°35' W 075°29'0 0.0
2017-Oct-16 02:00N 39°35' W 075°29'0 0.0
2017-Oct-16 01:30N 39°35' W 075°29'0 0.0
2017-Oct-16 01:00N 39°35' W 075°29'0 0.0
2017-Oct-16 00:30N 39°35' W 075°29'0 0.0
2017-Oct-16 00:00N 39°35' W 075°29'0 0.0
2017-Oct-15 23:30N 39°35' W 075°29'0 0.0
2017-Oct-15 23:00N 39°35' W 075°29'0 0.0
2017-Oct-15 22:30N 39°35' W 075°29'0 0.0
2017-Oct-15 22:00N 39°35' W 075°29'0 0.0
2017-Oct-15 21:30N 39°35' W 075°29'0 0.0
2017-Oct-15 21:00N 39°35' W 075°29'0 0.0
2017-Oct-15 20:30N 39°35' W 075°29'0 0.0
2017-Oct-15 20:00N 39°35' W 075°29'0 0.0
2017-Oct-15 19:30N 39°35' W 075°29'0 0.0
2017-Oct-15 19:00N 39°35' W 075°29'0 0.0
2017-Oct-15 18:30N 39°35' W 075°29'0 0.0
2017-Oct-15 18:00N 39°35' W 075°29'0 0.0
2017-Oct-15 17:30N 39°35' W 075°29'0 0.0
2017-Oct-15 17:00N 39°35' W 075°29'0 0.0
2017-Oct-15 16:30N 39°35' W 075°29'0 0.0
2017-Oct-15 16:00N 39°35' W 075°29'0 0.0
2017-Oct-15 15:30N 39°35' W 075°29'0 0.0
2017-Oct-15 15:00N 39°35' W 075°29'1 1.1
2017-Oct-15 14:01N 39°34' W 075°30'3 6.1
2017-Oct-15 13:31N 39°32' W 075°33'0 0.5
2017-Oct-15 13:01N 39°32' W 075°33'0 0.4
2017-Oct-15 12:31N 39°32' W 075°33'2 4.3
2017-Oct-15 12:01N 39°30' W 075°34'3 5.8
2017-Oct-15 11:30N 39°27' W 075°33'3 6.3
2017-Oct-15 11:00N 39°25' W 075°31'3 5.2
2017-Oct-15 10:31N 39°23' W 075°28'3 5.6
2017-Oct-15 10:00N 39°21' W 075°26'3 6.0
2017-Oct-15 09:31N 39°19' W 075°23'3 5.8
2017-Oct-15 09:00N 39°16' W 075°21'3 5.2
2017-Oct-15 08:30N 39°14' W 075°19'3 5.1
2017-Oct-15 08:00N 39°12' W 075°17'3 5.2
2017-Oct-15 07:30N 39°10' W 075°15'3 5.1
2017-Oct-15 07:00N 39°08' W 075°14'2 4.9
2017-Oct-15 06:30N 39°06' W 075°12'3 5.0
2017-Oct-15 06:00N 39°04' W 075°10'3 5.3
2017-Oct-15 05:30N 39°01' W 075°09'3 5.5
2017-Oct-15 05:01N 38°59' W 075°08'3 5.2
2017-Oct-15 04:30N 38°56' W 075°06'2 4.9
2017-Oct-15 04:00N 38°54' W 075°05'2 4.6
2017-Oct-15 03:30N 38°52' W 075°04'3 6.2
2017-Oct-15 03:00N 38°49' W 075°02'5 6.9
2017-Oct-15 02:21N 38°49' W 074°56'3 7.6
2017-Oct-15 02:01N 38°49' W 074°53'4 7.7
2017-Oct-15 01:27N 38°52' W 074°48'4 8.0
2017-Oct-15 01:00N 38°55' W 074°46'4 8.0
2017-Oct-15 00:28N 38°58' W 074°43'4 7.9
2017-Oct-15 00:00N 39°01' W 074°40'4 7.9
2017-Oct-14 23:31N 39°04' W 074°37'4 8.3
2017-Oct-14 23:00N 39°07' W 074°33'5 9.0
2017-Oct-14 22:30N 39°11' W 074°29'5 8.9
2017-Oct-14 21:59N 39°14' W 074°25'5 9.1
2017-Oct-14 21:29N 39°17' W 074°21'4 9.1
2017-Oct-14 21:00N 39°21' W 074°18'4 9.1
2017-Oct-14 20:31N 39°25' W 074°15'5 9.2
2017-Oct-14 20:00N 39°29' W 074°12'4 9.1
2017-Oct-14 19:30N 39°33' W 074°09'5 9.1
2017-Oct-14 19:00N 39°37' W 074°06'4 9.1
2017-Oct-14 18:30N 39°41' W 074°03'5 9.2
2017-Oct-14 18:00N 39°44' W 073°59'4 8.7
2017-Oct-14 17:29N 39°49' W 073°58'4 8.7
2017-Oct-14 17:00N 39°53' W 073°57'4 8.7
2017-Oct-14 16:30N 39°57' W 073°57'4 8.8
2017-Oct-14 16:00N 40°02' W 073°56'5 8.9
2017-Oct-14 15:25N 40°07' W 073°55'6 8.7
2017-Oct-14 14:40N 40°13' W 073°55'4 8.7
2017-Oct-14 14:13N 40°17' W 073°54'2 8.6
2017-Oct-14 14:00N 40°19' W 073°54'5 9.2
2017-Oct-14 13:30N 40°24' W 073°54'5 9.1
2017-Oct-14 12:59N 40°28' W 073°54'4 8.1
2017-Oct-14 12:30N 40°30' W 073°58'5 9.4
2017-Oct-14 12:00N 40°34' W 074°02'5 9.4
2017-Oct-14 11:30N 40°39' W 074°02'2 3.9
2017-Oct-14 11:00N 40°40' W 074°00'0 0.0
2017-Oct-14 10:29N 40°40' W 074°00'0 0.0
2017-Oct-14 09:59N 40°40' W 074°00'0 0.0
2017-Oct-14 09:26N 40°40' W 074°00'0 0.0
2017-Oct-14 08:59N 40°40' W 074°00'0 0.0
2017-Oct-14 08:29N 40°40' W 074°00'0 0.0
2017-Oct-14 07:59N 40°40' W 074°00'0 0.0
2017-Oct-14 07:29N 40°40' W 074°00'0 0.0
2017-Oct-14 06:59N 40°40' W 074°00'0 0.0
2017-Oct-14 06:29N 40°40' W 074°00'0 0.0
2017-Oct-14 05:59N 40°40' W 074°00'0 0.0
2017-Oct-14 05:29N 40°40' W 074°00'0 0.0
2017-Oct-14 05:00N 40°40' W 074°00'0 0.0
2017-Oct-14 04:29N 40°40' W 074°00'0 0.0
2017-Oct-14 03:59N 40°40' W 074°00'0 0.0
2017-Oct-14 03:29N 40°40' W 074°00'0 0.0
2017-Oct-14 02:56N 40°40' W 074°00'0 0.0
2017-Oct-14 02:29N 40°40' W 074°00'0 0.0
2017-Oct-14 01:56N 40°40' W 074°00'0 0.0
2017-Oct-14 01:29N 40°40' W 074°00'0 0.0
2017-Oct-14 00:59N 40°40' W 074°00'0 0.0
2017-Oct-14 00:26N 40°40' W 074°00'0 0.0
2017-Oct-13 23:59N 40°40' W 074°00'0 0.0
2017-Oct-13 23:26N 40°40' W 074°00'0 0.0
2017-Oct-13 22:56N 40°40' W 074°00'0 0.3
2017-Oct-13 22:28N 40°40' W 074°00'0 0.0
2017-Oct-13 21:55N 40°40' W 074°00'0 0.0
2017-Oct-13 21:28N 40°40' W 074°00'0 0.0
2017-Oct-13 20:58N 40°40' W 074°00'0 0.0
2017-Oct-13 20:28N 40°40' W 074°00'0 0.0
2017-Oct-13 19:58N 40°40' W 074°00'0 0.0
2017-Oct-13 19:25N 40°40' W 074°00'0 0.0
2017-Oct-13 18:52N 40°40' W 074°00'0 0.0
2017-Oct-13 18:28N 40°40' W 074°00'0 0.1
2017-Oct-13 17:58N 40°40' W 074°00'0 0.0
2017-Oct-13 17:25N 40°40' W 074°00'0 0.0
2017-Oct-13 16:58N 40°40' W 074°00'0 0.0
2017-Oct-13 16:28N 40°40' W 074°00'0 0.0
2017-Oct-13 15:58N 40°40' W 074°00'0 0.0
2017-Oct-13 15:28N 40°40' W 074°00'0 0.0
2017-Oct-13 14:58N 40°40' W 074°00'0 0.0
2017-Oct-13 14:28N 40°40' W 074°00'0 0.0
2017-Oct-13 13:55N 40°40' W 074°00'0 0.0
2017-Oct-13 13:28N 40°40' W 074°00'0 0.0
2017-Oct-13 12:58N 40°40' W 074°00'0 0.0
2017-Oct-13 12:19N 40°40' W 074°00'0 0.0
2017-Oct-13 11:58N 40°40' W 074°00'0 0.0
2017-Oct-13 11:28N 40°40' W 074°00'0 0.0
2017-Oct-13 10:58N 40°40' W 074°00'0 0.2
2017-Oct-13 10:26N 40°40' W 074°00'0 0.2
2017-Oct-13 09:59N 40°40' W 074°00'0 0.0
2017-Oct-13 09:29N 40°40' W 074°00'0 0.0
2017-Oct-13 08:59N 40°40' W 074°00'0 0.0
2017-Oct-13 08:29N 40°40' W 074°00'0 0.0
2017-Oct-13 07:59N 40°40' W 074°00'0 0.0
2017-Oct-13 07:30N 40°40' W 074°00'0 0.0
2017-Oct-13 06:59N 40°40' W 074°00'0 0.0
2017-Oct-13 06:29N 40°40' W 074°00'0 0.0
2017-Oct-13 06:00N 40°40' W 074°00'0 0.0
2017-Oct-13 05:29N 40°40' W 074°00'0 0.0
2017-Oct-13 04:59N 40°40' W 074°00'0 0.0
2017-Oct-13 04:30N 40°40' W 074°00'0 0.0
2017-Oct-13 03:59N 40°40' W 074°00'0 0.0
2017-Oct-13 03:29N 40°40' W 074°00'0 0.0
2017-Oct-13 02:59N 40°40' W 074°00'0 0.0
2017-Oct-13 02:29N 40°40' W 074°00'0 0.0
2017-Oct-13 01:59N 40°40' W 074°00'0 0.0
2017-Oct-13 01:27N 40°40' W 074°00'0 0.0
2017-Oct-13 00:56N 40°40' W 074°00'0 0.0
2017-Oct-13 00:29N 40°40' W 074°00'0 0.0
2017-Oct-12 23:56N 40°40' W 074°00'0 0.0
2017-Oct-12 23:29N 40°40' W 074°00'0 0.0
2017-Oct-12 23:00N 40°40' W 074°00'0 0.0
2017-Oct-12 22:29N 40°40' W 074°00'0 0.0
2017-Oct-12 21:59N 40°40' W 074°00'0 0.0
2017-Oct-12 21:29N 40°40' W 074°00'0 0.0
2017-Oct-12 20:59N 40°40' W 074°00'0 0.0
2017-Oct-12 20:29N 40°40' W 074°00'0 0.0
2017-Oct-12 19:56N 40°40' W 074°00'0 0.0
2017-Oct-12 19:26N 40°40' W 074°00'0 0.0
2017-Oct-12 18:59N 40°40' W 074°00'0 0.0
2017-Oct-12 18:29N 40°40' W 074°00'0 0.0
2017-Oct-12 17:59N 40°40' W 074°00'0 0.0
2017-Oct-12 17:29N 40°40' W 074°00'0 0.0
2017-Oct-12 16:59N 40°40' W 074°00'0 0.0
2017-Oct-12 16:29N 40°40' W 074°00'0 0.0
2017-Oct-12 15:59N 40°40' W 074°00'0 0.0
2017-Oct-12 15:29N 40°40' W 074°00'0 0.0
2017-Oct-12 14:50N 40°40' W 074°00'0 0.0
2017-Oct-12 14:26N 40°40' W 074°00'0 0.2
2017-Oct-12 14:00N 40°40' W 074°00'0 0.2
2017-Oct-12 13:28N 40°40' W 074°00'0 0.0
2017-Oct-12 12:58N 40°40' W 074°00'0 0.0
2017-Oct-12 12:28N 40°40' W 074°00'0 0.0
2017-Oct-12 11:49N 40°40' W 074°00'0 0.0
2017-Oct-12 11:28N 40°40' W 074°00'0 0.0
2017-Oct-12 10:58N 40°40' W 074°00'0 0.0
2017-Oct-12 10:28N 40°40' W 074°00'0 0.0
2017-Oct-12 09:58N 40°40' W 074°00'0 0.0
2017-Oct-12 09:31N 40°40' W 074°00'0 0.0
2017-Oct-12 08:55N 40°40' W 074°00'0 0.0
2017-Oct-12 08:28N 40°40' W 074°00'0 0.0
2017-Oct-12 07:58N 40°40' W 074°00'0 0.0
2017-Oct-12 07:31N 40°40' W 074°00'0 0.0
2017-Oct-12 07:01N 40°40' W 074°00'0 0.0
2017-Oct-12 06:28N 40°40' W 074°00'0 0.0
2017-Oct-12 06:01N 40°40' W 074°00'0 0.0
2017-Oct-12 05:28N 40°40' W 074°00'0 0.0
2017-Oct-12 04:55N 40°40' W 074°00'0 0.0
2017-Oct-12 04:31N 40°40' W 074°00'0 0.0
2017-Oct-12 03:58N 40°40' W 074°00'0 0.0
2017-Oct-12 03:28N 40°40' W 074°00'0 0.0
2017-Oct-12 03:01N 40°40' W 074°00'0 0.0
2017-Oct-12 02:28N 40°40' W 074°00'0 0.0
2017-Oct-12 01:57N 40°40' W 074°00'0 0.0
2017-Oct-12 01:28N 40°40' W 074°00'0 0.0
2017-Oct-12 00:57N 40°40' W 074°00'0 0.0
2017-Oct-12 00:30N 40°40' W 074°00'0 0.0
2017-Oct-11 23:58N 40°40' W 074°00'0 0.0
2017-Oct-11 23:30N 40°40' W 074°00'0 0.0
2017-Oct-11 23:01N 40°40' W 074°00'0 0.0
2017-Oct-11 22:30N 40°40' W 074°00'0 0.0
2017-Oct-11 22:00N 40°40' W 074°00'0 0.0
2017-Oct-11 21:30N 40°40' W 074°00'0 0.0
2017-Oct-11 20:58N 40°40' W 074°00'0 0.0
2017-Oct-11 20:27N 40°40' W 074°00'0 0.0
2017-Oct-11 20:01N 40°40' W 074°00'0 0.0
2017-Oct-11 19:31N 40°40' W 074°00'0 0.0
2017-Oct-11 18:58N 40°40' W 074°00'0 0.0
2017-Oct-11 18:30N 40°40' W 074°00'0 0.0
2017-Oct-11 18:00N 40°40' W 074°00'0 0.0
2017-Oct-11 17:28N 40°40' W 074°00'0 0.0
2017-Oct-11 17:01N 40°40' W 074°00'0 0.0
2017-Oct-10 23:59N 40°40' W 074°00'0 0.0
2017-Oct-10 23:29N 40°40' W 074°00'0 0.0
2017-Oct-10 22:59N 40°40' W 074°00'0 0.0
2017-Oct-10 22:29N 40°40' W 074°00'0 0.0
2017-Oct-10 21:59N 40°40' W 074°00'0 0.0
2017-Oct-10 21:29N 40°40' W 074°00'0 0.0
2017-Oct-10 20:59N 40°40' W 074°00'0 0.0
2017-Oct-10 20:29N 40°40' W 074°00'0 0.0
2017-Oct-10 19:59N 40°40' W 074°00'0 0.0
2017-Oct-10 19:29N 40°40' W 074°00'0 0.0
2017-Oct-10 18:59N 40°40' W 074°00'0 0.0
2017-Oct-10 18:29N 40°40' W 074°00'0 0.0
2017-Oct-10 17:59N 40°40' W 074°00'0 0.0
2017-Oct-10 17:29N 40°40' W 074°00'0 0.0
2017-Oct-10 16:59N 40°40' W 074°00'0 0.0
2017-Oct-10 16:29N 40°40' W 074°00'0 0.0
2017-Oct-10 15:59N 40°40' W 074°00'0 0.0
2017-Oct-10 15:29N 40°40' W 074°00'0 0.0
2017-Oct-10 14:59N 40°40' W 074°00'0 0.0
2017-Oct-10 13:59N 40°40' W 074°00'0 0.0
2017-Oct-10 13:29N 40°40' W 074°00'0 0.0
2017-Oct-10 12:59N 40°40' W 074°00'0 0.0
2017-Oct-10 12:29N 40°40' W 074°00'0 0.0
2017-Oct-10 11:59N 40°40' W 074°00'0 0.0
2017-Oct-10 11:29N 40°40' W 074°00'0 0.0
2017-Oct-10 10:59N 40°40' W 074°00'0 0.0
2017-Oct-10 10:29N 40°40' W 074°00'0 0.0
2017-Oct-10 09:59N 40°40' W 074°00'0 0.0
2017-Oct-10 09:29N 40°40' W 074°00'0 0.0
2017-Oct-10 08:59N 40°40' W 074°00'0 0.0
2017-Oct-10 08:29N 40°40' W 074°00'0 0.0
2017-Oct-10 07:59N 40°40' W 074°00'0 0.0
2017-Oct-10 07:29N 40°40' W 074°00'0 0.0
2017-Oct-10 06:59N 40°40' W 074°00'0 0.0
2017-Oct-10 06:29N 40°40' W 074°00'0 0.0
2017-Oct-10 05:59N 40°40' W 074°00'0 0.0
2017-Oct-10 05:29N 40°40' W 074°00'0 0.0
2017-Oct-10 04:59N 40°40' W 074°00'0 0.0
2017-Oct-10 04:29N 40°40' W 074°00'0 0.0
2017-Oct-10 03:59N 40°40' W 074°00'0 0.0
2017-Oct-10 03:29N 40°40' W 074°00'0 0.0
2017-Oct-10 02:59N 40°40' W 074°00'0 0.0
2017-Oct-10 02:29N 40°40' W 074°00'0 0.0
2017-Oct-10 01:59N 40°40' W 074°00'0 0.0
2017-Oct-10 01:29N 40°40' W 074°00'0 0.0
2017-Oct-10 00:59N 40°40' W 074°00'0 0.0
2017-Oct-10 00:29N 40°40' W 074°00'0 0.0
2017-Oct-09 23:59N 40°40' W 074°00'0 0.0
2017-Oct-09 23:29N 40°40' W 074°00'0 0.0
2017-Oct-09 22:59N 40°40' W 074°00'0 0.0
2017-Oct-09 22:29N 40°40' W 074°00'0 0.0
2017-Oct-09 21:59N 40°40' W 074°00'0 0.0
2017-Oct-09 21:29N 40°40' W 074°00'0 0.0
2017-Oct-09 20:59N 40°40' W 074°00'0 0.0
2017-Oct-09 20:29N 40°40' W 074°00'0 0.0
2017-Oct-09 19:59N 40°40' W 074°00'0 0.0
2017-Oct-09 19:29N 40°40' W 074°00'0 0.0
2017-Oct-09 18:59N 40°40' W 074°00'0 0.0
2017-Oct-09 18:29N 40°40' W 074°00'0 0.0
2017-Oct-09 17:59N 40°40' W 074°00'0 0.0
2017-Oct-09 17:29N 40°40' W 074°00'0 0.0
2017-Oct-09 16:59N 40°40' W 074°00'0 0.0
2017-Oct-09 16:28N 40°40' W 074°00'0 0.0
2017-Oct-09 15:59N 40°40' W 074°00'0 0.0
2017-Oct-09 15:29N 40°40' W 074°00'0 0.0
2017-Oct-09 14:59N 40°40' W 074°00'0 0.0
2017-Oct-09 14:29N 40°40' W 074°00'0 0.0
2017-Oct-09 13:58N 40°40' W 074°00'0 0.0
2017-Oct-09 13:28N 40°40' W 074°00'0 0.0
2017-Oct-09 12:59N 40°40' W 074°00'0 0.0
2017-Oct-09 12:28N 40°40' W 074°00'0 0.0
2017-Oct-09 11:58N 40°40' W 074°00'0 0.0
2017-Oct-09 11:28N 40°40' W 074°00'0 0.1
2017-Oct-09 10:58N 40°40' W 074°00'0 0.1
2017-Oct-09 10:29N 40°40' W 074°00'0 0.0
2017-Oct-09 09:58N 40°40' W 074°00'0 0.0
2017-Oct-09 09:29N 40°40' W 074°00'0 0.0
2017-Oct-09 08:58N 40°40' W 074°00'0 0.0
2017-Oct-09 08:29N 40°40' W 074°00'0 0.0
2017-Oct-09 07:58N 40°40' W 074°00'0 0.0
2017-Oct-09 07:29N 40°40' W 074°00'0 0.0
2017-Oct-09 06:58N 40°40' W 074°00'0 0.0
2017-Oct-09 06:29N 40°40' W 074°00'0 0.0
2017-Oct-09 05:59N 40°40' W 074°00'0 0.0
2017-Oct-09 05:29N 40°40' W 074°00'0 0.0
2017-Oct-09 04:59N 40°40' W 074°00'0 0.0
2017-Oct-09 04:28N 40°40' W 074°00'0 0.0
2017-Oct-09 03:59N 40°40' W 074°00'0 0.0
2017-Oct-09 03:29N 40°40' W 074°00'0 0.1
2017-Oct-09 02:59N 40°40' W 074°00'0 0.0
2017-Oct-09 02:28N 40°40' W 074°00'0 0.0
2017-Oct-09 01:58N 40°40' W 074°00'0 0.0
2017-Oct-09 01:28N 40°40' W 074°00'0 0.0
2017-Oct-09 00:58N 40°40' W 074°00'0 0.0
2017-Oct-09 00:28N 40°40' W 074°00'0 0.0
2017-Oct-08 23:59N 40°40' W 074°00'0 0.0
2017-Oct-08 23:28N 40°40' W 074°00'0 0.0
2017-Oct-08 22:58N 40°40' W 074°00'0 0.0
2017-Oct-08 22:28N 40°40' W 074°00'0 0.0
2017-Oct-08 21:58N 40°40' W 074°00'0 0.0
2017-Oct-08 21:28N 40°40' W 074°00'0 0.0
2017-Oct-08 20:58N 40°40' W 074°00'0 0.0
2017-Oct-08 20:28N 40°40' W 074°00'0 0.0
2017-Oct-08 19:58N 40°40' W 074°00'0 0.0
2017-Oct-08 19:28N 40°40' W 074°00'0 0.0
2017-Oct-08 18:58N 40°40' W 074°00'0 0.0
2017-Oct-08 18:28N 40°40' W 074°00'0 0.0
2017-Oct-08 17:58N 40°40' W 074°00'0 0.0
2017-Oct-08 17:25N 40°40' W 074°00'0 0.0
2017-Oct-08 16:58N 40°40' W 074°00'0 0.0
2017-Oct-08 16:28N 40°40' W 074°00'0 0.0
2017-Oct-08 15:58N 40°40' W 074°00'0 0.0
2017-Oct-08 15:28N 40°40' W 074°00'0 0.0
2017-Oct-08 14:58N 40°40' W 074°00'0 0.0
2017-Oct-08 14:25N 40°40' W 074°00'0 0.0
2017-Oct-08 13:58N 40°40' W 074°00'0 0.0
2017-Oct-08 13:28N 40°40' W 074°00'0 0.0
2017-Oct-08 12:58N 40°40' W 074°00'0 0.0
2017-Oct-08 12:28N 40°40' W 074°00'0 0.0
2017-Oct-08 11:58N 40°40' W 074°00'0 0.0
2017-Oct-08 11:28N 40°40' W 074°00'0 0.0
2017-Oct-08 10:58N 40°40' W 074°00'0 0.0
2017-Oct-08 10:28N 40°40' W 074°00'0 0.0
2017-Oct-08 09:58N 40°40' W 074°00'0 0.0
2017-Oct-08 09:28N 40°40' W 074°00'0 0.0
2017-Oct-08 08:58N 40°40' W 074°00'0 0.0
2017-Oct-08 08:28N 40°40' W 074°00'0 0.0
2017-Oct-08 07:58N 40°40' W 074°00'0 0.0
2017-Oct-08 07:28N 40°40' W 074°00'0 0.0
2017-Oct-08 06:58N 40°40' W 074°00'0 0.0
2017-Oct-08 06:28N 40°40' W 074°00'0 0.0
2017-Oct-08 05:58N 40°40' W 074°00'0 0.0
2017-Oct-08 05:28N 40°40' W 074°00'0 0.0
2017-Oct-08 04:58N 40°40' W 074°00'0 0.0
2017-Oct-08 04:28N 40°40' W 074°00'0 0.0
2017-Oct-08 03:58N 40°40' W 074°00'0 0.0
2017-Oct-08 03:28N 40°40' W 074°00'0 0.0
2017-Oct-08 02:58N 40°40' W 074°00'0 0.0
2017-Oct-08 02:28N 40°40' W 074°00'0 0.0
2017-Oct-08 01:58N 40°40' W 074°00'0 0.0
2017-Oct-08 01:28N 40°40' W 074°00'0 0.0
2017-Oct-08 00:58N 40°40' W 074°00'0 0.0
2017-Oct-08 00:28N 40°40' W 074°00'0 0.0
2017-Oct-07 23:58N 40°40' W 074°00'0 0.1
2017-Oct-07 23:30N 40°40' W 074°00'0 0.1
2017-Oct-07 23:00N 40°40' W 074°00'3 5.0
2017-Oct-07 22:30N 40°38' W 074°03'1 1.9
2017-Oct-07 22:00N 40°37' W 074°03'2 4.6
2017-Oct-07 21:30N 40°35' W 074°02'2 5.0
2017-Oct-07 21:00N 40°33' W 074°01'2 4.9
2017-Oct-07 20:30N 40°31' W 073°59'2 4.4
2017-Oct-07 20:00N 40°30' W 073°57'2 3.6
2017-Oct-07 19:30N 40°29' W 073°55'2 3.6
2017-Oct-07 19:00N 40°27' W 073°54'3 6.6
2017-Oct-07 18:29N 40°24' W 073°54'3 6.7
2017-Oct-07 18:00N 40°21' W 073°54'3 6.9
2017-Oct-07 17:30N 40°17' W 073°54'3 6.8
2017-Oct-07 17:00N 40°14' W 073°54'4 6.8
2017-Oct-07 16:27N 40°10' W 073°55'5 6.8
2017-Oct-07 15:41N 40°05' W 073°55'2 6.8
2017-Oct-07 15:23N 40°03' W 073°56'3 7.1
2017-Oct-07 15:00N 40°00' W 073°56'4 7.3
2017-Oct-07 14:29N 39°56' W 073°57'4 7.3
2017-Oct-07 13:58N 39°53' W 073°57'4 7.4
2017-Oct-07 13:29N 39°49' W 073°58'4 7.6
2017-Oct-07 13:00N 39°45' W 073°59'4 7.6
2017-Oct-07 12:29N 39°42' W 074°01'  

Dump ship's entire track history